createdAt,value
2023-04-18T00:01:35.209Z,8.76
2023-04-18T00:04:08.712Z,8.74
2023-04-18T00:06:42.288Z,8.71
2023-04-18T00:09:15.456Z,8.68
2023-04-18T00:11:48.810Z,8.66
2023-04-18T00:14:23.287Z,8.63
2023-04-18T00:16:55.998Z,8.58
2023-04-18T00:19:28.719Z,8.56
2023-04-18T00:22:01.819Z,8.53
2023-04-18T00:24:35.102Z,8.50
2023-04-18T00:27:08.172Z,8.47
2023-04-18T00:29:42.874Z,8.45
2023-04-18T00:32:16.174Z,8.42
2023-04-18T00:34:49.110Z,8.39
2023-04-18T00:37:23.855Z,8.34
2023-04-18T00:39:56.780Z,8.31
2023-04-18T00:42:29.799Z,8.30
2023-04-18T00:45:03.062Z,8.27
2023-04-18T00:47:37.333Z,8.25
2023-04-18T00:50:12.123Z,8.23
2023-04-18T00:52:47.237Z,8.18
2023-04-18T00:55:20.716Z,8.15
2023-04-18T00:57:53.828Z,8.10
2023-04-18T01:00:27.333Z,8.07
2023-04-18T01:03:01.588Z,8.03
2023-04-18T01:05:36.692Z,8.00
2023-04-18T01:08:09.665Z,7.96
2023-04-18T01:10:42.890Z,7.90
2023-04-18T01:13:19.034Z,7.86
2023-04-18T01:15:55.026Z,7.81
2023-04-18T01:18:28.158Z,7.77
2023-04-18T01:21:01.414Z,7.72
2023-04-18T01:23:34.860Z,7.70
2023-04-18T01:26:07.942Z,7.67
2023-04-18T01:28:41.002Z,7.64
2023-04-18T01:31:13.974Z,7.59
2023-04-18T01:33:47.036Z,7.57
2023-04-18T01:36:20.411Z,7.54
2023-04-18T01:38:53.221Z,7.50
2023-04-18T01:41:29.386Z,7.46
2023-04-18T01:44:02.659Z,7.42
2023-04-18T01:46:36.382Z,7.39
2023-04-18T01:49:10.342Z,7.35
2023-04-18T01:51:44.150Z,7.32
2023-04-18T01:54:17.068Z,7.29
2023-04-18T01:56:49.930Z,7.24
2023-04-18T01:59:22.951Z,7.20
2023-04-18T02:01:56.537Z,7.16
2023-04-18T02:04:29.658Z,7.14
2023-04-18T02:07:02.309Z,7.12
2023-04-18T02:09:35.411Z,7.09
2023-04-18T02:12:09.261Z,7.08
2023-04-18T02:14:42.400Z,7.05
2023-04-18T02:17:15.461Z,7.03
2023-04-18T02:19:48.682Z,6.99
2023-04-18T02:22:21.831Z,6.95
2023-04-18T02:24:54.633Z,6.91
2023-04-18T02:27:27.554Z,6.88
2023-04-18T02:30:02.042Z,6.86
2023-04-18T02:32:37.520Z,6.84
2023-04-18T02:35:13.669Z,6.82
2023-04-18T02:37:46.675Z,6.81
2023-04-18T02:40:20.343Z,6.79
2023-04-18T02:42:53.203Z,6.76
2023-04-18T02:45:26.203Z,6.73
2023-04-18T02:47:59.931Z,6.72
2023-04-18T02:50:33.454Z,6.71
2023-04-18T02:53:06.502Z,6.70
2023-04-18T02:55:41.187Z,6.68
2023-04-18T02:58:14.256Z,6.69
2023-04-18T03:00:57.752Z,6.72
2023-04-18T03:03:44.701Z,6.77
2023-04-18T03:06:19.377Z,6.80
2023-04-18T03:08:53.181Z,6.84
2023-04-18T03:11:26.143Z,6.86
2023-04-18T03:13:59.831Z,6.87
2023-04-18T03:16:34.517Z,6.91
2023-04-18T03:19:07.370Z,6.91
2023-04-18T03:21:40.582Z,6.95
2023-04-18T03:24:14.233Z,6.97
2023-04-18T03:26:48.670Z,6.99
2023-04-18T03:29:22.258Z,7.01
2023-04-18T03:31:55.606Z,7.09
2023-04-18T03:34:28.293Z,7.17
2023-04-18T03:37:01.811Z,7.22
2023-04-18T03:39:35.171Z,7.30
2023-04-18T03:42:08.448Z,7.37
2023-04-18T03:44:41.478Z,7.48
2023-04-18T03:47:16.247Z,7.63
2023-04-18T03:49:50.977Z,7.72
2023-04-18T03:52:24.680Z,7.81
2023-04-18T03:54:58.054Z,7.91
2023-04-18T03:57:32.854Z,8.01
2023-04-18T04:00:10.642Z,8.08
2023-04-18T04:02:50.682Z,8.11
2023-04-18T04:05:25.293Z,8.17
2023-04-18T04:07:59.364Z,8.17
2023-04-18T04:10:32.194Z,8.18
2023-04-18T04:13:05.421Z,8.16
2023-04-18T04:15:40.831Z,8.12
2023-04-18T04:18:15.418Z,8.06
2023-04-18T04:20:49.452Z,7.99
2023-04-18T04:23:27.503Z,7.94
2023-04-18T04:26:02.109Z,7.91
2023-04-18T04:28:40.380Z,7.91
2023-04-18T04:31:13.967Z,7.89
2023-04-18T04:33:47.217Z,7.89
2023-04-18T04:36:23.405Z,7.89
2023-04-18T04:38:57.230Z,7.91
2023-04-18T04:41:32.077Z,7.94
2023-04-18T04:44:05.843Z,7.95
2023-04-18T04:46:40.648Z,7.95
2023-04-18T04:49:15.754Z,7.94
2023-04-18T04:51:49.006Z,7.87
2023-04-18T04:54:22.399Z,7.78
2023-04-18T04:56:55.590Z,7.71
2023-04-18T04:59:28.803Z,7.70
2023-04-18T05:02:01.965Z,7.73
2023-04-18T05:04:35.439Z,7.76
2023-04-18T05:07:08.433Z,7.79
2023-04-18T05:09:41.278Z,7.83
2023-04-18T05:12:14.474Z,7.88
2023-04-18T05:14:49.138Z,7.90
2023-04-18T05:17:22.550Z,7.95
2023-04-18T05:19:55.471Z,7.94
2023-04-18T05:22:28.526Z,7.92
2023-04-18T05:25:01.738Z,7.94
2023-04-18T05:27:35.192Z,8.00
2023-04-18T05:30:09.479Z,8.06
2023-04-18T05:32:42.714Z,8.14
2023-04-18T05:35:15.584Z,8.23
2023-04-18T05:37:48.259Z,8.27
2023-04-18T05:40:21.443Z,8.32
2023-04-18T05:42:54.459Z,8.36
2023-04-18T05:45:27.482Z,8.36
2023-04-18T05:48:00.809Z,8.37
2023-04-18T05:50:34.016Z,8.43
2023-04-18T05:53:06.902Z,8.53
2023-04-18T05:55:41.386Z,8.69
2023-04-18T05:58:14.405Z,8.82
2023-04-18T06:00:48.582Z,8.88
2023-04-18T06:03:21.629Z,8.93
2023-04-18T06:05:54.903Z,8.90
2023-04-18T06:08:28.358Z,8.86
2023-04-18T06:11:01.352Z,8.89
2023-04-18T06:13:34.462Z,8.96
2023-04-18T06:16:09.394Z,9.05
2023-04-18T06:18:42.708Z,9.16
2023-04-18T06:21:16.445Z,9.26
2023-04-18T06:23:49.328Z,9.35
2023-04-18T06:26:22.434Z,9.45
2023-04-18T06:28:56.283Z,9.50
2023-04-18T06:31:29.364Z,9.59
2023-04-18T06:34:02.238Z,9.59
2023-04-18T06:36:35.481Z,9.54
2023-04-18T06:39:08.301Z,9.48
2023-04-18T06:41:41.351Z,9.39
2023-04-18T06:44:14.200Z,9.31
2023-04-18T06:46:47.311Z,9.30
2023-04-18T06:49:21.997Z,9.35
2023-04-18T06:51:54.771Z,9.39
2023-04-18T06:54:27.948Z,9.39
2023-04-18T06:57:03.052Z,9.38
2023-04-18T06:59:37.708Z,9.38
2023-04-18T07:02:11.151Z,9.40
2023-04-18T07:04:44.291Z,9.45
2023-04-18T07:07:17.526Z,9.50
2023-04-18T07:09:53.015Z,9.55
2023-04-18T07:12:27.475Z,9.69
2023-04-18T07:15:00.572Z,9.78
2023-04-18T07:17:34.395Z,9.88
2023-04-18T07:20:09.297Z,9.95
2023-04-18T07:22:43.074Z,10.02
2023-04-18T07:25:16.032Z,10.06
2023-04-18T07:27:49.073Z,10.08
2023-04-18T07:30:22.238Z,10.11
2023-04-18T07:32:55.558Z,10.11
2023-04-18T07:35:28.995Z,10.12
2023-04-18T07:38:02.086Z,10.14
2023-04-18T07:40:35.295Z,10.18
2023-04-18T07:43:08.450Z,10.22
2023-04-18T07:45:43.502Z,10.23
2023-04-18T07:48:16.934Z,10.20
2023-04-18T07:50:50.528Z,10.21
2023-04-18T07:53:23.534Z,10.18
2023-04-18T07:55:57.069Z,10.24
2023-04-18T07:58:30.399Z,10.32
2023-04-18T08:01:03.634Z,10.49
2023-04-18T08:03:37.443Z,10.66
2023-04-18T08:06:11.755Z,10.79
2023-04-18T08:08:44.868Z,10.86
2023-04-18T08:11:17.721Z,10.94
2023-04-18T08:13:50.627Z,10.96
2023-04-18T08:16:23.632Z,11.02
2023-04-18T08:18:56.741Z,11.08
2023-04-18T08:21:29.804Z,11.13
2023-04-18T08:24:02.713Z,11.21
2023-04-18T08:26:35.915Z,11.33
2023-04-18T08:29:08.788Z,11.36
2023-04-18T08:31:42.016Z,11.29
2023-04-18T08:34:15.038Z,11.27
2023-04-18T08:36:48.007Z,11.29
2023-04-18T08:39:21.006Z,11.31
2023-04-18T08:42:03.490Z,11.32
2023-04-18T08:44:38.744Z,11.34
2023-04-18T08:47:13.070Z,11.31
2023-04-18T08:49:45.804Z,11.22
2023-04-18T08:52:19.243Z,11.18
2023-04-18T08:54:52.803Z,11.22
2023-04-18T08:57:30.253Z,11.31
2023-04-18T09:00:05.027Z,11.40
2023-04-18T09:02:45.237Z,11.47
2023-04-18T09:05:21.888Z,11.56
2023-04-18T09:07:56.902Z,11.64
2023-04-18T09:10:35.332Z,11.69
2023-04-18T09:13:09.901Z,11.70
2023-04-18T09:15:44.604Z,11.67
2023-04-18T09:18:18.576Z,11.62
2023-04-18T09:20:52.321Z,11.69
2023-04-18T09:23:26.272Z,11.85
2023-04-18T09:25:59.795Z,11.99
2023-04-18T09:28:34.450Z,12.06
2023-04-18T09:31:15.181Z,12.11
2023-04-18T09:33:57.108Z,12.19
2023-04-18T09:36:31.669Z,12.33
2023-04-18T09:39:04.281Z,12.48
2023-04-18T09:41:37.354Z,12.56
2023-04-18T09:44:15.869Z,12.57
2023-04-18T09:46:49.766Z,12.60
2023-04-18T09:49:23.214Z,12.60
2023-04-18T09:51:57.763Z,12.58
2023-04-18T09:54:32.153Z,12.52
2023-04-18T09:57:06.628Z,12.45
2023-04-18T10:00:02.274Z,12.35
2023-04-18T10:02:47.949Z,12.25
2023-04-18T10:05:24.547Z,12.19
2023-04-18T10:07:57.669Z,12.17
2023-04-18T10:10:31.073Z,12.20
2023-04-18T10:13:05.277Z,12.25
2023-04-18T10:15:38.596Z,12.35
2023-04-18T10:18:17.591Z,12.46
2023-04-18T10:20:50.833Z,12.61
2023-04-18T10:23:39.321Z,12.80
2023-04-18T10:26:13.710Z,13.00
2023-04-18T10:28:59.023Z,13.21
2023-04-18T10:31:32.011Z,13.35
2023-04-18T10:34:08.296Z,13.46
2023-04-18T10:36:52.423Z,13.54
2023-04-18T10:39:26.355Z,13.62
2023-04-18T10:41:59.224Z,13.62
2023-04-18T10:44:32.474Z,13.57
2023-04-18T10:47:19.279Z,13.53
2023-04-18T10:49:57.378Z,13.49
2023-04-18T10:52:30.390Z,13.51
2023-04-18T10:55:28.375Z,13.62
2023-04-18T10:58:02.089Z,13.78
2023-04-18T11:00:35.581Z,13.91
2023-04-18T11:03:08.475Z,13.95
2023-04-18T11:05:41.704Z,13.95
2023-04-18T11:08:27.030Z,13.90
2023-04-18T11:11:03.073Z,13.83
2023-04-18T11:13:37.117Z,13.79
2023-04-18T11:16:10.086Z,13.82
2023-04-18T11:18:43.472Z,13.87
2023-04-18T11:21:16.661Z,13.98
2023-04-18T11:23:50.170Z,14.07
2023-04-18T11:26:26.192Z,14.17
2023-04-18T11:28:59.908Z,14.26
2023-04-18T11:31:33.391Z,14.32
2023-04-18T11:34:06.433Z,14.38
2023-04-18T11:36:39.815Z,14.44
2023-04-18T11:39:12.712Z,14.45
2023-04-18T11:41:48.003Z,14.45
2023-04-18T11:44:25.718Z,14.46
2023-04-18T11:46:58.982Z,14.44
2023-04-18T11:49:33.472Z,14.46
2023-04-18T11:52:13.746Z,14.49
2023-04-18T11:54:47.266Z,14.56
2023-04-18T11:57:32.273Z,14.62
2023-04-18T12:00:07.669Z,14.68
2023-04-18T12:02:47.966Z,14.77
2023-04-18T12:05:32.186Z,14.85
2023-04-18T12:08:14.149Z,14.92
2023-04-18T12:10:51.943Z,14.94
2023-04-18T12:13:33.544Z,14.99
2023-04-18T12:16:07.926Z,15.00
2023-04-18T12:18:42.285Z,15.05
2023-04-18T12:21:16.854Z,15.12
2023-04-18T12:23:50.007Z,15.18
2023-04-18T12:26:24.360Z,15.19
2023-04-18T12:28:56.511Z,15.24
2023-04-18T12:31:29.084Z,15.29
2023-04-18T12:34:02.447Z,15.31
2023-04-18T12:36:35.546Z,15.30
2023-04-18T12:39:09.439Z,15.32
2023-04-18T12:41:42.344Z,15.34
2023-04-18T12:44:15.491Z,15.35
2023-04-18T12:46:48.719Z,15.40
2023-04-18T12:49:21.855Z,15.48
2023-04-18T12:51:54.943Z,15.52
2023-04-18T12:54:27.929Z,15.54
2023-04-18T12:57:01.966Z,15.54
2023-04-18T12:59:35.148Z,15.51
2023-04-18T13:02:08.212Z,15.47
2023-04-18T13:04:41.816Z,15.43
2023-04-18T13:07:14.992Z,15.43
2023-04-18T13:09:48.219Z,15.45
2023-04-18T13:12:21.599Z,15.50
2023-04-18T13:14:55.126Z,15.49
2023-04-18T13:17:29.193Z,15.50
2023-04-18T13:20:02.523Z,15.54
2023-04-18T13:22:36.312Z,15.53
2023-04-18T13:25:12.349Z,15.54
2023-04-18T13:27:46.237Z,15.54
2023-04-18T13:30:19.536Z,15.52
2023-04-18T13:32:52.578Z,15.54
2023-04-18T13:35:25.655Z,15.54
2023-04-18T13:37:59.456Z,15.52
2023-04-18T13:40:33.760Z,15.50
2023-04-18T13:43:06.634Z,15.48
2023-04-18T13:45:39.716Z,15.49
2023-04-18T13:48:15.062Z,15.51
2023-04-18T13:50:47.530Z,15.53
2023-04-18T13:53:21.235Z,15.51
2023-04-18T13:55:54.370Z,15.53
2023-04-18T13:58:27.290Z,15.51
2023-04-18T14:01:00.313Z,15.51
2023-04-18T14:03:35.308Z,15.51
2023-04-18T14:06:08.464Z,15.53
2023-04-18T14:08:41.631Z,15.50
2023-04-18T14:11:14.662Z,15.46
2023-04-18T14:13:47.715Z,15.40
2023-04-18T14:16:20.845Z,15.37
2023-04-18T14:18:54.195Z,15.38
2023-04-18T14:21:27.388Z,15.41
2023-04-18T14:24:00.686Z,15.39
2023-04-18T14:26:33.926Z,15.42
2023-04-18T14:29:07.010Z,15.40
2023-04-18T14:31:40.109Z,15.34
2023-04-18T14:34:13.072Z,15.27
2023-04-18T14:36:46.307Z,15.23
2023-04-18T14:39:19.362Z,15.19
2023-04-18T14:41:54.386Z,15.13
2023-04-18T14:44:27.753Z,15.08
2023-04-18T14:47:00.830Z,14.99
2023-04-18T14:49:34.449Z,14.92
2023-04-18T14:52:07.444Z,14.81
2023-04-18T14:54:40.290Z,14.73
2023-04-18T14:57:13.192Z,14.68
2023-04-18T14:59:46.155Z,14.66
2023-04-18T15:02:19.112Z,14.63
2023-04-18T15:04:53.666Z,14.60
2023-04-18T15:07:27.052Z,14.55
2023-04-18T15:10:00.108Z,14.50
2023-04-18T15:12:34.075Z,14.44
2023-04-18T15:15:08.157Z,14.35
2023-04-18T15:17:42.733Z,14.29
2023-04-18T15:20:16.421Z,14.24
2023-04-18T15:22:49.193Z,14.16
2023-04-18T15:25:22.089Z,14.09
2023-04-18T15:27:55.262Z,14.01
2023-04-18T15:30:28.404Z,13.97
2023-04-18T15:33:02.742Z,13.91
2023-04-18T15:35:36.140Z,13.87
2023-04-18T15:38:08.968Z,13.81
2023-04-18T15:40:43.759Z,13.75
2023-04-18T15:43:17.551Z,13.72
2023-04-18T15:45:52.212Z,13.68
2023-04-18T15:48:25.665Z,13.63
2023-04-18T15:50:58.663Z,13.58
2023-04-18T15:53:31.984Z,13.52
2023-04-18T15:56:06.301Z,13.48
2023-04-18T15:58:39.129Z,13.45
2023-04-18T16:01:16.108Z,13.40
2023-04-18T16:03:49.307Z,13.36
2023-04-18T16:06:23.611Z,13.32
2023-04-18T16:08:55.722Z,13.28
2023-04-18T16:11:29.239Z,13.25
2023-04-18T16:14:02.132Z,13.18
2023-04-18T16:16:35.212Z,13.15
2023-04-18T16:19:07.999Z,13.10
2023-04-18T16:21:41.494Z,13.07
2023-04-18T16:24:16.871Z,13.01
2023-04-18T16:26:51.376Z,12.97
2023-04-18T16:29:24.566Z,12.93
2023-04-18T16:31:57.719Z,12.90
2023-04-18T16:34:30.775Z,12.88
2023-04-18T16:37:03.754Z,12.88
2023-04-18T16:39:36.850Z,12.85
2023-04-18T16:42:09.800Z,12.85
2023-04-18T16:44:45.055Z,12.81
2023-04-18T16:47:17.939Z,12.79
2023-04-18T16:49:51.751Z,12.76
2023-04-18T16:52:25.272Z,12.73
2023-04-18T16:54:58.414Z,12.67
2023-04-18T16:57:31.733Z,12.67
2023-04-18T17:00:05.464Z,12.65
2023-04-18T17:02:39.797Z,12.65
2023-04-18T17:05:13.180Z,12.64
2023-04-18T17:07:48.904Z,12.61
2023-04-18T17:10:21.911Z,12.60
2023-04-18T17:12:55.045Z,12.57
2023-04-18T17:15:28.960Z,12.53
2023-04-18T17:18:02.847Z,12.51
2023-04-18T17:20:36.513Z,12.45
2023-04-18T17:23:09.244Z,12.42
2023-04-18T17:25:42.034Z,12.40
2023-04-18T17:28:15.282Z,12.37
2023-04-18T17:30:49.829Z,12.35
2023-04-18T17:33:22.563Z,12.32
2023-04-18T17:35:55.624Z,12.30
2023-04-18T17:38:28.594Z,12.27
2023-04-18T17:41:03.177Z,12.22
2023-04-18T17:43:37.012Z,12.19
2023-04-18T17:46:10.195Z,12.15
2023-04-18T17:48:43.441Z,12.11
2023-04-18T17:51:17.097Z,12.10
2023-04-18T17:53:50.181Z,12.09
2023-04-18T17:56:23.068Z,12.09
2023-04-18T17:58:56.822Z,12.10
2023-04-18T18:01:30.738Z,12.11
2023-04-18T18:04:04.006Z,12.10
2023-04-18T18:06:37.589Z,12.09
2023-04-18T18:09:10.881Z,12.09
2023-04-18T18:11:43.826Z,12.08
2023-04-18T18:14:17.534Z,12.08
2023-04-18T18:16:50.746Z,12.10
2023-04-18T18:19:23.659Z,12.11
2023-04-18T18:21:56.825Z,12.13
2023-04-18T18:24:29.828Z,12.13
2023-04-18T18:27:02.744Z,12.13
2023-04-18T18:29:36.184Z,12.12
2023-04-18T18:32:09.381Z,12.11
2023-04-18T18:34:42.557Z,12.09
2023-04-18T18:37:15.974Z,12.09
2023-04-18T18:39:49.166Z,12.09
2023-04-18T18:42:22.102Z,12.12
2023-04-18T18:44:55.051Z,12.14
2023-04-18T18:47:28.208Z,12.15
2023-04-18T18:50:01.476Z,12.15
2023-04-18T18:52:34.828Z,12.12
2023-04-18T18:55:08.956Z,12.08
2023-04-18T18:57:41.017Z,12.05
2023-04-18T19:00:15.165Z,12.02
2023-04-18T19:02:48.636Z,11.98
2023-04-18T19:05:22.177Z,11.93
2023-04-18T19:07:55.979Z,11.91
2023-04-18T19:10:28.937Z,11.91
2023-04-18T19:13:02.189Z,11.92
2023-04-18T19:15:35.204Z,11.91
2023-04-18T19:18:08.806Z,11.91
2023-04-18T19:20:42.043Z,11.89
2023-04-18T19:23:15.164Z,11.88
2023-04-18T19:25:48.649Z,11.85
2023-04-18T19:28:22.841Z,11.83
2023-04-18T19:30:55.796Z,11.79
2023-04-18T19:33:29.593Z,11.74
2023-04-18T19:36:02.636Z,11.71
2023-04-18T19:38:35.993Z,11.69
2023-04-18T19:41:09.130Z,11.67
2023-04-18T19:43:42.864Z,11.63
2023-04-18T19:46:16.177Z,11.59
2023-04-18T19:48:49.168Z,11.56
2023-04-18T19:51:22.436Z,11.55
2023-04-18T19:53:55.986Z,11.52
2023-04-18T19:56:29.141Z,11.50
2023-04-18T19:59:02.704Z,11.47
2023-04-18T20:01:37.052Z,11.44
2023-04-18T20:04:10.368Z,11.41
2023-04-18T20:06:43.878Z,11.39
2023-04-18T20:09:17.767Z,11.37
2023-04-18T20:11:50.832Z,11.33
2023-04-18T20:14:24.121Z,11.30
2023-04-18T20:16:57.619Z,11.29
2023-04-18T20:19:30.661Z,11.29
2023-04-18T20:22:03.812Z,11.26
2023-04-18T20:24:38.830Z,11.24
2023-04-18T20:27:11.872Z,11.25
2023-04-18T20:29:45.571Z,11.25
2023-04-18T20:32:18.486Z,11.23
2023-04-18T20:34:51.760Z,11.23
2023-04-18T20:37:24.709Z,11.23
2023-04-18T20:39:59.084Z,11.22
2023-04-18T20:42:30.960Z,11.21
2023-04-18T20:45:08.807Z,11.22
2023-04-18T20:47:43.423Z,11.21
2023-04-18T20:50:18.411Z,11.21
2023-04-18T20:52:51.480Z,11.21
2023-04-18T20:55:24.603Z,11.20
2023-04-18T20:57:58.943Z,11.22
2023-04-18T21:00:30.923Z,11.21
2023-04-18T21:03:03.760Z,11.21
2023-04-18T21:05:37.214Z,11.18
2023-04-18T21:08:11.223Z,11.18
2023-04-18T21:10:43.428Z,11.17
2023-04-18T21:13:16.744Z,11.17
2023-04-18T21:15:51.253Z,11.14
2023-04-18T21:18:24.591Z,11.15
2023-04-18T21:20:57.635Z,11.13
2023-04-18T21:23:30.846Z,11.13
2023-04-18T21:26:03.875Z,11.13
2023-04-18T21:28:56.374Z,11.12
2023-04-18T21:31:33.081Z,11.12
2023-04-18T21:34:07.919Z,11.09
2023-04-18T21:36:42.004Z,11.08
2023-04-18T21:39:14.948Z,11.07
2023-04-18T21:41:48.145Z,11.05
2023-04-18T21:44:21.099Z,11.04
2023-04-18T21:46:54.173Z,11.04
2023-04-18T21:49:27.232Z,11.03
2023-04-18T21:52:00.680Z,11.04
2023-04-18T21:54:33.737Z,11.03
2023-04-18T21:57:06.984Z,11.04
2023-04-18T21:59:40.475Z,11.04
2023-04-18T22:02:13.652Z,11.05
2023-04-18T22:04:48.295Z,11.04
2023-04-18T22:07:21.838Z,11.04
2023-04-18T22:09:54.964Z,11.04
2023-04-18T22:12:28.040Z,11.02
2023-04-18T22:15:01.008Z,11.01
2023-04-18T22:17:35.485Z,11.00
2023-04-18T22:20:08.881Z,11.00
2023-04-18T22:22:42.151Z,11.01
2023-04-18T22:25:15.245Z,11.01
2023-04-18T22:27:48.261Z,11.02
2023-04-18T22:30:21.314Z,11.02
2023-04-18T22:32:54.531Z,11.02
2023-04-18T22:35:28.428Z,11.00
2023-04-18T22:38:01.683Z,11.00
2023-04-18T22:40:34.860Z,11.01
2023-04-18T22:43:08.019Z,11.02
2023-04-18T22:45:41.004Z,11.03
2023-04-18T22:48:13.814Z,11.02
2023-04-18T22:50:47.651Z,11.02
2023-04-18T22:53:20.720Z,11.01
2023-04-18T22:55:53.490Z,11.02
2023-04-18T22:58:26.711Z,11.03
2023-04-18T23:01:00.719Z,11.04
2023-04-18T23:03:34.868Z,11.04
2023-04-18T23:06:08.823Z,11.03
2023-04-18T23:08:41.628Z,11.02
2023-04-18T23:11:14.537Z,10.99
2023-04-18T23:13:48.560Z,10.96
2023-04-18T23:16:21.557Z,10.96
2023-04-18T23:18:54.794Z,10.94
2023-04-18T23:21:28.378Z,10.90
2023-04-18T23:24:02.224Z,10.90
2023-04-18T23:26:35.301Z,10.92
2023-04-18T23:29:08.380Z,10.93
2023-04-18T23:31:43.061Z,10.90
2023-04-18T23:34:16.459Z,10.88
2023-04-18T23:36:49.768Z,10.86
2023-04-18T23:39:23.093Z,10.84
2023-04-18T23:41:56.577Z,10.82
2023-04-18T23:44:29.622Z,10.81
2023-04-18T23:47:02.678Z,10.78
2023-04-18T23:49:36.023Z,10.75
2023-04-18T23:52:09.231Z,10.70
2023-04-18T23:54:42.104Z,10.66
2023-04-18T23:57:15.126Z,10.63
2023-04-18T23:59:48.288Z,10.58
